メインページ
METAR-TAF:

METAR-TAF

空港 :

パリチャールズ・ドゴール, フランス

パリ=シャルル・ド・ゴール空港

緯度: 49-01N, 経度: 002-32E, 海抜: 118m

現時点の気象観測

当レポートは27分前の23:30(UTC)に作成
東/北東の風 16kt
気温 0°C
湿度 64%
気圧 1019 hPa
視程10km以上
1,500メートル以下は雲なし、積乱雲なし

METAR: LFPG 242330Z 06016KT CAVOK M00/M06 Q1019 NOSIG

時間: 00:57 (23:57 UTC)

予報

当レポートは57分前の23:00(UTC)に作成
予報は25日の 00時(UTC)から 26日の 06時(UTC)まで有効
東/北東の風 15kt
視程10km以上
1,500メートル以下は雲なし、積乱雲なし
25日の 09時(UTC)から 25日の 17時(UTC)まで一時的に
東/北東の風 15kt、最大25ktの突風を伴う

TAF: LFPG 242300Z 2500/2606 06015KT CAVOK TEMPO 2509/2517 06015G25KT TX03/2514Z TNM05/2606Z

4,000以上の空港の気象観測と天気予報(METAR報とTAF報)

利用可能な観測所は地図上に黄色い丸と赤い丸で示す。

丸の上にカーソルを重ねると観測所名を参照できる。

次にクリックすると気象観測と天気予報を参照できる。

マップの切り替え:黒色「×」印の緑ボタンをクリックして拡大、「-」印の緑ボタンをクリックして縮小、緑色の三角印をクリックして隣りの地図に切り替え


METAR-TAF: